EBAW

EBAW 260420Z AUTO 20008KT 170V230 9999 // FEW016/// OVC022/// 10/07 Q1000

TAF TAF EBAW 232300Z 2400/2412 25011KT 9999 SCT030

EHWO

EHWO 260425Z AUTO 20008KT 160V240 9999 SCT012 OVC014 10/08 Q0999 GRN

TAF EHWO 230808Z 2309/2321 VRB02KT 0800 FG OVC001 TEMPO 2309/2312 3000 BR BKN003 BECMG 2310/2313 21006KT 9999 NSW SCT020 PROB30 TEMPO 2319/2321 4500 -SHRA SCT015 SCT020CB BKN025

EBBL

EBBL 260425Z AUTO 20006KT 9999 OVC023/// 10/08 Q1000 WHT

TAF TAF EBBL 211541Z 2119/2207 21020G35KT 9999 S0 BECMG 2100/2202 21013G23KT S0

Always consult the official METAR resources.